ADDS METAR Data INFO
IDs: Format: Raw Decoded Include TAF

Data at: 1513 UTC 21 Feb 2018

K9A5 211435Z AUTO 18005KT 10SM OVC018 20/18 A3039 RMK AO2 T01960182
K9A5 211415Z AUTO 17006KT 10SM OVC016 19/18 A3039 RMK AO2 T01910180
K9A5 211355Z AUTO 18005KT 10SM OVC014 19/18 A3038 RMK AO2 T01870177
K9A5 211335Z AUTO 18005KT 10SM OVC016 19/18 A3037 RMK AO2 T01870178
K9A5 211315Z AUTO 19004KT 10SM BKN016 OVC021 19/18 A3037 RMK AO2 T01860180
K9A5 211255Z AUTO 18004KT 10SM BKN018 OVC025 18/18 A3036 RMK AO2 T01810176
K9A5 201515Z AUTO 00000KT 7SM OVC010 16/16 A3037 RMK AO2 T01620162
K9A5 201455Z AUTO 00000KT 7SM OVC010 16/16 A3037 RMK AO2 T01570157
K9A5 201435Z AUTO 00000KT 5SM BKN008 OVC012 15/15 A3036 RMK AO2 T01540154
K9A5 201415Z AUTO 00000KT 5SM OVC011 15/15 A3036 RMK AO2 T01500150
K9A5 201355Z AUTO 00000KT 5SM OVC011 15/15 A3035 RMK AO2 T01470147
K9A5 201335Z AUTO 00000KT 5SM OVC011 15/15 A3035 RMK AO2 T01450145
K9A5 201315Z AUTO 00000KT 4SM OVC011 14/14 A3034 RMK AO2 T01370137
K9A5 201255Z AUTO 00000KT 2 1/2SM OVC011 13/13 A3033 RMK AO2 T01300130
K9A5 201235Z AUTO 00000KT 2SM OVC011 13/13 A3033 RMK AO2 T01270127
K9A5 201215Z AUTO 00000KT 3SM OVC011 13/13 A3034 RMK AO2 T01270127
K9A5 201155Z AUTO 00000KT 3SM OVC011 13/13 A3033 RMK AO2 T01250125 10130 20116
K9A5 201135Z AUTO 00000KT 2 1/2SM OVC013 13/13 A3033 RMK AO2 T01250125
K9A5 201115Z AUTO 00000KT 4SM OVC011 13/13 A3033 RMK AO2 T01250125
K9A5 201055Z AUTO 00000KT 3SM OVC011 13/13 A3033 RMK AO2 T01250125
K9A5 201035Z AUTO 00000KT 3SM OVC013 12/12 A3033 RMK AO2 T01200120
K9A5 201015Z AUTO 00000KT 4SM BKN013 BKN037 OVC065 12/12 A3032 RMK AO2 T01230123
K9A5 200955Z AUTO 00000KT 3SM SCT013 OVC037 13/13 A3033 RMK AO2 T01300130
K9A5 200935Z AUTO 00000KT 3SM SCT013 BKN041 OVC070 13/13 A3033 RMK AO2 T01270127
K9A5 200915Z AUTO 00000KT 4SM SCT013 BKN042 OVC070 13/13 A3032 RMK AO2 T01260126
K9A5 200855Z AUTO 00000KT 4SM BKN013 OVC043 13/13 A3032 RMK AO2 T01270127
K9A5 200835Z AUTO 00000KT 4SM SCT008 BKN055 OVC070 12/12 A3032 RMK AO2 T01230123
K9A5 200815Z AUTO 00000KT 4SM SCT042 SCT055 OVC070 12/12 A3032 RMK AO2 T01240124
K9A5 200755Z AUTO 00000KT 4SM SCT044 BKN070 12/12 A3032 RMK AO2 T01240124
K9A5 200735Z AUTO 00000KT 5SM SCT010 SCT014 OVC070 12/12 A3032 RMK AO2 T01230123
K9A5 200715Z AUTO 00000KT 5SM SCT010 BKN016 OVC070 12/12 A3032 RMK AO2 T01240124
K9A5 200655Z AUTO 00000KT 5SM BKN012 BKN017 OVC070 12/12 A3032 RMK AO2 T01220122
K9A5 200635Z AUTO 00000KT 5SM OVC012 12/12 A3032 RMK AO2 T01180118
K9A5 200615Z AUTO 00000KT 4SM BKN012 OVC049 12/12 A3032 RMK AO2 T01170117
K9A5 200555Z AUTO 00000KT 5SM BKN014 OVC050 12/12 A3031 RMK AO2 T01190119 10162 20116 401910116
K9A5 200535Z AUTO 00000KT 5SM OVC014 12/12 A3031 RMK AO2 T01170117
K9A5 200515Z AUTO 00000KT 4SM OVC012 12/12 A3031 RMK AO2 T01180118
K9A5 200455Z AUTO 00000KT 4SM OVC014 12/12 A3031 RMK AO2 T01180118
K9A5 200435Z AUTO 00000KT 5SM SCT010 BKN016 BKN045 12/12 A3031 RMK AO2 T01210121
K9A5 200415Z AUTO 00000KT 5SM CLR 13/13 A3030 RMK AO2 T01280128
K9A5 200355Z AUTO 00000KT 10SM CLR 13/13 A3030 RMK AO2 T01320132
K9A5 200335Z AUTO 00000KT 10SM CLR 13/13 A3029 RMK AO2 T01340134
K9A5 200315Z AUTO 20004KT 7SM CLR 13/13 A3029 RMK AO2 T01270127